createdAt,value
2022-08-17T00:00:51.977Z,14.60
2022-08-17T00:03:26.130Z,14.30
2022-08-17T00:06:00.120Z,13.80
2022-08-17T00:08:35.356Z,14.80
2022-08-17T00:11:10.804Z,13.90
2022-08-17T00:13:45.690Z,14.30
2022-08-17T00:16:20.774Z,14.10
2022-08-17T00:19:15.482Z,14.30
2022-08-17T00:22:29.640Z,14.30
2022-08-17T00:24:41.537Z,14.80
2022-08-17T00:27:13.341Z,15.20
2022-08-17T00:29:45.480Z,15.70
2022-08-17T00:33:15.195Z,14.30
2022-08-17T00:35:14.084Z,14.60
2022-08-17T00:37:45.744Z,15.50
2022-08-17T00:40:18.463Z,15.40
2022-08-17T00:42:51.506Z,15.00
2022-08-17T00:45:23.439Z,15.20
2022-08-17T00:47:55.177Z,14.90
2022-08-17T00:50:26.869Z,16.90
2022-08-17T00:53:00.237Z,16.00
2022-08-17T00:55:32.872Z,17.10
2022-08-17T00:58:06.643Z,16.10
2022-08-17T01:00:42.239Z,15.60
2022-08-17T01:03:19.525Z,15.40
2022-08-17T01:05:56.174Z,15.40
2022-08-17T01:08:32.108Z,14.50
2022-08-17T01:11:05.387Z,15.30
2022-08-17T01:13:41.718Z,16.90
2022-08-17T01:16:19.301Z,16.10
2022-08-17T01:18:54.229Z,16.80
2022-08-17T01:21:32.964Z,16.40
2022-08-17T01:24:05.342Z,15.30
2022-08-17T01:26:38.285Z,17.10
2022-08-17T01:29:11.381Z,16.60
2022-08-17T01:31:51.140Z,17.20
2022-08-17T01:34:24.804Z,18.20
2022-08-17T01:37:15.625Z,17.10
2022-08-17T01:39:52.277Z,17.30
2022-08-17T01:42:32.021Z,16.20
2022-08-17T01:45:11.152Z,16.80
2022-08-17T01:47:42.865Z,17.30
2022-08-17T01:50:19.780Z,16.80
2022-08-17T01:52:55.256Z,17.10
2022-08-17T01:55:33.414Z,15.80
2022-08-17T01:58:09.552Z,17.70
2022-08-17T02:00:46.760Z,17.10
2022-08-17T02:03:34.475Z,16.60
2022-08-17T02:06:27.131Z,16.80
2022-08-17T02:09:03.199Z,15.90
2022-08-17T02:11:39.128Z,16.60
2022-08-17T02:14:12.343Z,16.70
2022-08-17T02:16:44.794Z,17.10
2022-08-17T02:19:17.668Z,17.30
2022-08-17T02:21:51.466Z,17.20
2022-08-17T02:25:00.815Z,16.60
2022-08-17T02:27:18.369Z,16.80
2022-08-17T02:29:50.009Z,16.50
2022-08-17T02:32:28.045Z,16.70
2022-08-17T02:35:00.678Z,17.30
2022-08-17T02:37:32.522Z,17.60
2022-08-17T02:40:06.225Z,17.30
2022-08-17T02:42:40.510Z,17.90
2022-08-17T02:45:15.103Z,17.80
2022-08-17T02:47:47.886Z,17.80
2022-08-17T02:50:22.019Z,17.80
2022-08-17T02:53:01.990Z,19.90
2022-08-17T02:55:37.158Z,18.30
2022-08-17T02:58:10.550Z,19.20
2022-08-17T03:00:47.770Z,18.40
2022-08-17T03:03:20.041Z,19.40
2022-08-17T03:05:53.216Z,18.00
2022-08-17T03:08:25.551Z,20.70
2022-08-17T03:13:27.694Z,19.40
2022-08-17T03:15:59.565Z,19.50
2022-08-17T03:18:31.248Z,20.00
2022-08-17T03:21:04.639Z,19.10
2022-08-17T03:23:40.990Z,20.30
2022-08-17T03:26:15.513Z,20.40
2022-08-17T03:28:48.046Z,19.60
2022-08-17T03:31:21.433Z,18.90
2022-08-17T03:33:53.120Z,20.30
2022-08-17T03:36:24.790Z,19.70
2022-08-17T03:38:56.526Z,19.30
2022-08-17T03:41:28.317Z,20.80
2022-08-17T03:44:00.022Z,19.50
2022-08-17T03:46:45.611Z,19.80
2022-08-17T03:49:34.848Z,19.10
2022-08-17T03:52:20.719Z,19.90
2022-08-17T03:55:10.171Z,20.10
2022-08-17T03:57:41.947Z,19.60
2022-08-17T04:00:15.582Z,20.70
2022-08-17T04:02:47.556Z,19.70
2022-08-17T04:05:19.265Z,21.70
2022-08-17T04:07:51.779Z,21.00
2022-08-17T04:12:59.180Z,22.40
2022-08-17T04:15:33.312Z,21.30
2022-08-17T04:18:06.957Z,22.10
2022-08-17T04:20:39.135Z,21.10
2022-08-17T04:23:13.330Z,22.20
2022-08-17T04:25:48.300Z,22.20
2022-08-17T04:28:21.678Z,21.40
2022-08-17T04:30:53.496Z,21.60
2022-08-17T04:33:27.278Z,22.10
2022-08-17T04:36:01.175Z,21.90
2022-08-17T04:38:35.877Z,22.90
2022-08-17T04:41:26.699Z,22.10
2022-08-17T04:43:59.317Z,22.50
2022-08-17T04:49:06.574Z,22.50
2022-08-17T04:51:54.644Z,23.20
2022-08-17T04:54:30.396Z,21.60
2022-08-17T04:57:02.007Z,22.20
2022-08-17T04:59:33.908Z,22.30
2022-08-17T05:02:05.633Z,23.00
2022-08-17T05:04:37.362Z,23.40
2022-08-17T05:07:09.235Z,22.60
2022-08-17T05:09:40.949Z,23.80
2022-08-17T05:12:12.985Z,22.10
2022-08-17T05:14:44.633Z,24.20
2022-08-17T05:17:16.728Z,21.90
2022-08-17T05:19:51.878Z,24.90
2022-08-17T05:22:23.927Z,22.30
2022-08-17T05:24:56.023Z,23.30
2022-08-17T05:27:30.829Z,22.90
2022-08-17T05:30:08.938Z,24.40
2022-08-17T05:32:40.607Z,23.20
2022-08-17T05:35:12.553Z,22.40
2022-08-17T05:37:44.379Z,24.80
2022-08-17T05:40:17.050Z,22.80
2022-08-17T05:42:49.301Z,22.90
2022-08-17T05:45:54.504Z,22.00
2022-08-17T05:48:16.470Z,22.30
2022-08-17T05:50:55.838Z,23.00
2022-08-17T05:53:38.446Z,20.20
2022-08-17T05:56:30.207Z,21.60
2022-08-17T05:59:11.802Z,21.80
2022-08-17T06:01:51.654Z,21.50
2022-08-17T06:04:32.392Z,21.40
2022-08-17T06:07:12.125Z,21.30
2022-08-17T06:09:58.100Z,20.40
2022-08-17T06:12:41.528Z,19.70
2022-08-17T06:15:31.712Z,20.50
2022-08-17T06:18:06.893Z,20.40
2022-08-17T06:20:48.173Z,21.60
2022-08-17T06:23:28.095Z,19.40
2022-08-17T06:26:10.163Z,19.40
2022-08-17T06:28:49.193Z,18.20
2022-08-17T06:31:27.406Z,18.80
2022-08-17T06:34:01.261Z,18.80
2022-08-17T06:36:48.303Z,16.70
2022-08-17T06:39:40.891Z,17.10
2022-08-17T06:43:02.817Z,16.60
2022-08-17T06:45:23.989Z,17.20
2022-08-17T06:48:01.902Z,18.10
2022-08-17T06:50:38.722Z,18.20
2022-08-17T06:53:21.539Z,17.10
2022-08-17T06:58:31.862Z,16.00
2022-08-17T07:01:09.663Z,16.70
2022-08-17T07:03:47.623Z,17.10
2022-08-17T07:06:22.005Z,17.20
2022-08-17T07:09:00.107Z,16.60
2022-08-17T07:11:38.774Z,16.40
2022-08-17T07:14:25.110Z,17.00
2022-08-17T07:16:59.400Z,18.30
2022-08-17T07:19:34.395Z,17.10
2022-08-17T07:22:18.039Z,17.00
2022-08-17T07:24:58.427Z,17.20
2022-08-17T07:27:33.134Z,17.80
2022-08-17T07:30:10.981Z,16.30
2022-08-17T07:32:48.031Z,18.20
2022-08-17T07:35:23.354Z,15.90
2022-08-17T07:38:25.485Z,16.50
2022-08-17T07:41:08.386Z,18.50
2022-08-17T07:43:49.904Z,16.20
2022-08-17T07:46:42.398Z,16.30
2022-08-17T07:49:24.043Z,16.30
2022-08-17T07:52:13.387Z,16.40
2022-08-17T07:54:57.585Z,15.60
2022-08-17T07:57:37.542Z,16.50
2022-08-17T08:00:31.832Z,15.10
2022-08-17T08:03:15.960Z,18.00
2022-08-17T08:06:00.279Z,17.30
2022-08-17T08:08:36.322Z,16.20
2022-08-17T08:11:11.977Z,15.20
2022-08-17T08:13:46.018Z,16.30
2022-08-17T08:16:30.269Z,15.60
2022-08-17T08:19:03.633Z,16.10
2022-08-17T08:21:46.508Z,16.00
2022-08-17T08:24:50.317Z,15.00
2022-08-17T08:27:34.896Z,15.70
2022-08-17T08:30:11.669Z,14.60
2022-08-17T08:33:05.569Z,16.30
2022-08-17T08:35:44.622Z,16.00
2022-08-17T08:38:25.520Z,18.60
2022-08-17T08:41:09.462Z,15.40
2022-08-17T08:43:56.921Z,14.20
2022-08-17T08:46:35.510Z,15.30
2022-08-17T08:50:01.808Z,14.40
2022-08-17T08:52:51.806Z,13.60
2022-08-17T08:55:35.563Z,13.40
2022-08-17T08:58:31.313Z,12.90
2022-08-17T09:01:04.166Z,12.60
2022-08-17T09:04:23.288Z,11.60
2022-08-17T09:07:08.759Z,11.80
2022-08-17T09:09:50.309Z,13.70
2022-08-17T09:12:34.557Z,12.60
2022-08-17T09:15:13.334Z,12.60
2022-08-17T09:18:14.615Z,12.40
2022-08-17T09:20:50.938Z,10.70
2022-08-17T09:23:32.802Z,10.30
2022-08-17T09:26:15.599Z,11.40
2022-08-17T09:28:51.822Z,12.10
2022-08-17T09:31:35.412Z,11.50
2022-08-17T09:34:31.922Z,10.70
2022-08-17T09:37:17.389Z,11.40
2022-08-17T09:39:56.400Z,10.20
2022-08-17T09:42:32.636Z,10.30
2022-08-17T09:45:22.762Z,10.30
2022-08-17T09:48:00.421Z,9.60
2022-08-17T09:51:03.336Z,10.60
2022-08-17T09:53:32.009Z,10.90
2022-08-17T09:56:33.140Z,10.80
2022-08-17T09:59:27.474Z,10.20
2022-08-17T10:02:31.110Z,10.00
2022-08-17T10:05:08.826Z,10.40
2022-08-17T10:07:47.224Z,10.10
2022-08-17T10:10:29.475Z,10.20
2022-08-17T10:13:13.125Z,10.40
2022-08-17T10:15:52.517Z,10.10
2022-08-17T10:18:37.715Z,9.80
2022-08-17T10:21:29.553Z,10.80
2022-08-17T10:24:33.479Z,9.90
2022-08-17T10:27:10.563Z,9.40
2022-08-17T10:29:49.853Z,8.90
2022-08-17T10:32:32.852Z,9.00
2022-08-17T10:35:25.614Z,9.00
2022-08-17T10:38:24.653Z,9.40
2022-08-17T10:41:02.542Z,9.40
2022-08-17T10:43:44.684Z,9.60
2022-08-17T10:46:53.968Z,9.50
2022-08-17T10:49:30.368Z,9.60
2022-08-17T10:52:05.420Z,9.10
2022-08-17T10:54:58.243Z,10.20
2022-08-17T10:57:45.997Z,8.20
2022-08-17T11:01:02.269Z,8.60
2022-08-17T11:03:34.416Z,9.20
2022-08-17T11:06:17.078Z,9.60
2022-08-17T11:09:16.609Z,9.60
2022-08-17T11:12:06.675Z,11.20
2022-08-17T11:15:00.366Z,9.40
2022-08-17T11:17:58.236Z,8.50
2022-08-17T11:21:05.521Z,9.90
2022-08-17T11:24:02.882Z,8.30
2022-08-17T11:26:36.817Z,10.00
2022-08-17T11:29:19.069Z,9.60
2022-08-17T11:32:03.550Z,9.30
2022-08-17T11:34:36.278Z,10.00
2022-08-17T11:37:37.544Z,9.50
2022-08-17T11:40:43.155Z,10.00
2022-08-17T11:43:33.222Z,9.70
2022-08-17T11:46:18.386Z,9.30
2022-08-17T11:49:21.489Z,10.00
2022-08-17T11:52:15.638Z,9.10
2022-08-17T11:54:49.807Z,8.70
2022-08-17T11:58:01.516Z,9.50
2022-08-17T12:00:57.772Z,9.80
2022-08-17T12:03:55.671Z,9.40
2022-08-17T12:06:45.261Z,8.40
2022-08-17T12:09:22.091Z,9.30
2022-08-17T12:12:12.465Z,9.40
2022-08-17T12:15:12.927Z,9.80
2022-08-17T12:17:52.535Z,9.40
2022-08-17T12:20:35.673Z,11.00
2022-08-17T12:23:17.194Z,9.40
2022-08-17T12:25:57.330Z,9.60
2022-08-17T12:28:31.950Z,9.70
2022-08-17T12:31:08.792Z,8.90
2022-08-17T12:33:46.232Z,8.80
2022-08-17T12:36:21.778Z,9.20
2022-08-17T12:39:14.272Z,10.00
2022-08-17T12:42:01.950Z,8.70
2022-08-17T12:44:46.116Z,9.10
2022-08-17T12:47:23.305Z,9.20
2022-08-17T12:50:05.649Z,8.70
2022-08-17T12:52:42.448Z,9.30
2022-08-17T12:55:22.460Z,9.30
2022-08-17T12:57:59.715Z,9.30
2022-08-17T13:00:38.065Z,9.10
2022-08-17T13:03:16.487Z,9.40
2022-08-17T13:05:59.873Z,8.80
2022-08-17T13:08:36.022Z,9.20
2022-08-17T13:11:10.440Z,8.80
2022-08-17T13:13:44.868Z,8.80
2022-08-17T13:16:21.630Z,8.70
2022-08-17T13:18:58.350Z,9.60
2022-08-17T13:21:33.133Z,8.60
2022-08-17T13:24:07.875Z,8.00
2022-08-17T13:26:42.645Z,9.10
2022-08-17T13:29:24.377Z,8.70
2022-08-17T13:32:14.341Z,8.50
2022-08-17T13:35:08.334Z,8.00
2022-08-17T13:37:42.603Z,8.30
2022-08-17T13:40:36.657Z,8.80
2022-08-17T13:43:08.916Z,8.70
2022-08-17T13:45:50.294Z,9.10
2022-08-17T13:48:29.050Z,9.10
2022-08-17T13:51:23.471Z,8.40
2022-08-17T13:54:24.119Z,8.70
2022-08-17T13:57:03.597Z,8.60
2022-08-17T13:59:53.020Z,8.90
2022-08-17T14:02:28.511Z,8.50
2022-08-17T14:05:02.118Z,9.10
2022-08-17T14:07:41.072Z,8.00
2022-08-17T14:10:18.330Z,9.00
2022-08-17T14:12:50.903Z,8.60
2022-08-17T14:15:53.977Z,8.10
2022-08-17T14:18:34.320Z,9.50
2022-08-17T14:21:11.938Z,8.80
2022-08-17T14:26:21.397Z,9.30
2022-08-17T14:28:56.935Z,9.10
2022-08-17T14:31:31.867Z,9.40
2022-08-17T14:34:07.524Z,9.00
2022-08-17T14:36:41.853Z,9.70
2022-08-17T14:39:21.654Z,9.20
2022-08-17T14:41:53.929Z,10.40
2022-08-17T14:44:25.967Z,9.30
2022-08-17T14:49:30.251Z,9.60
2022-08-17T14:52:03.292Z,9.60
2022-08-17T14:54:35.072Z,10.20
2022-08-17T14:57:23.229Z,9.40
2022-08-17T14:59:59.332Z,9.60
2022-08-17T15:02:31.387Z,9.10
2022-08-17T15:07:34.289Z,8.60
2022-08-17T15:10:08.235Z,9.20
2022-08-17T15:12:40.812Z,9.20
2022-08-17T15:15:15.953Z,8.20
2022-08-17T15:17:47.650Z,8.40
2022-08-17T15:20:22.827Z,9.00
2022-08-17T15:22:57.209Z,8.70
2022-08-17T15:25:31.775Z,8.20
2022-08-17T15:28:04.033Z,8.90
2022-08-17T15:30:36.642Z,7.90
2022-08-17T15:33:08.409Z,9.00
2022-08-17T15:35:41.231Z,8.50
2022-08-17T15:40:46.672Z,9.20
2022-08-17T15:43:26.447Z,8.60
2022-08-17T15:46:02.465Z,8.60
2022-08-17T15:48:42.338Z,9.00
2022-08-17T15:51:18.406Z,8.50
2022-08-17T15:53:52.170Z,10.40
2022-08-17T15:56:25.219Z,9.40
2022-08-17T15:58:57.348Z,9.00
2022-08-17T16:04:30.054Z,9.20
2022-08-17T16:07:02.890Z,8.70
2022-08-17T16:09:34.716Z,9.30
2022-08-17T16:12:14.482Z,9.60
2022-08-17T16:14:46.963Z,9.10
2022-08-17T16:17:38.632Z,8.70
2022-08-17T16:20:20.712Z,9.20
2022-08-17T16:22:54.243Z,8.90
2022-08-17T16:25:52.357Z,9.20
2022-08-17T16:28:35.646Z,9.30
2022-08-17T16:31:08.883Z,9.00
2022-08-17T16:33:42.297Z,9.00
2022-08-17T16:36:35.255Z,9.30
2022-08-17T16:39:06.950Z,9.00
2022-08-17T16:41:44.533Z,9.10
2022-08-17T16:44:18.464Z,9.50
2022-08-17T16:46:51.498Z,10.40
2022-08-17T16:49:31.940Z,8.60
2022-08-17T16:52:11.289Z,9.30
2022-08-17T16:54:46.591Z,9.10
2022-08-17T16:57:19.641Z,9.30
2022-08-17T16:59:53.061Z,8.50
2022-08-17T17:02:31.137Z,8.50
2022-08-17T17:05:08.542Z,8.80
2022-08-17T17:07:51.915Z,8.70
2022-08-17T17:10:29.420Z,8.50
2022-08-17T17:13:04.199Z,8.90
2022-08-17T17:15:54.994Z,8.60
2022-08-17T17:18:38.422Z,9.10
2022-08-17T17:21:14.353Z,9.70
2022-08-17T17:23:52.254Z,9.70
2022-08-17T17:26:35.214Z,9.20
2022-08-17T17:29:27.435Z,9.10
2022-08-17T17:32:07.466Z,8.90
2022-08-17T17:34:41.719Z,9.20
2022-08-17T17:37:20.766Z,9.50
2022-08-17T17:39:56.908Z,9.60
2022-08-17T17:42:33.045Z,9.40
2022-08-17T17:45:15.935Z,9.30
2022-08-17T17:47:49.106Z,9.50
2022-08-17T17:50:27.559Z,10.00
2022-08-17T17:53:05.321Z,9.20
2022-08-17T17:56:00.926Z,9.60
2022-08-17T17:58:49.909Z,8.80
2022-08-17T18:01:39.955Z,9.00
2022-08-17T18:04:21.279Z,9.70
2022-08-17T18:07:16.321Z,10.40
2022-08-17T18:10:03.778Z,8.10
2022-08-17T18:12:41.644Z,9.40
2022-08-17T18:15:37.146Z,10.00
2022-08-17T18:18:31.071Z,9.90
2022-08-17T18:21:06.791Z,9.80
2022-08-17T18:23:46.516Z,9.80
2022-08-17T18:26:39.459Z,10.10
2022-08-17T18:29:30.182Z,9.60
2022-08-17T18:32:26.003Z,10.10
2022-08-17T18:35:01.352Z,10.30
2022-08-17T18:37:40.665Z,9.90
2022-08-17T18:40:33.958Z,10.70
2022-08-17T18:43:13.598Z,9.70
2022-08-17T18:45:50.047Z,9.40
2022-08-17T18:48:25.945Z,9.60
2022-08-17T18:51:00.875Z,9.50
2022-08-17T18:53:37.226Z,11.50
2022-08-17T18:56:30.741Z,11.20
2022-08-17T18:59:12.185Z,9.80
2022-08-17T19:02:03.209Z,10.30
2022-08-17T19:04:42.868Z,10.40
2022-08-17T19:07:31.236Z,9.80
2022-08-17T19:10:12.434Z,11.70
2022-08-17T19:12:48.213Z,9.30
2022-08-17T19:15:25.639Z,10.30
2022-08-17T19:18:01.664Z,9.70
2022-08-17T19:20:37.550Z,11.20
2022-08-17T19:23:17.639Z,10.20
2022-08-17T19:25:52.836Z,10.80
2022-08-17T19:28:30.161Z,10.40
2022-08-17T19:31:08.023Z,10.60
2022-08-17T19:33:39.841Z,10.40
2022-08-17T19:36:21.445Z,10.10
2022-08-17T19:39:00.398Z,11.90
2022-08-17T19:41:43.088Z,10.70
2022-08-17T19:44:36.794Z,11.40
2022-08-17T19:47:36.249Z,11.10
2022-08-17T19:50:16.207Z,11.40
2022-08-17T19:52:55.274Z,10.80
2022-08-17T19:55:33.961Z,11.80
2022-08-17T19:58:12.924Z,11.00
2022-08-17T20:00:53.034Z,11.30
2022-08-17T20:03:32.695Z,11.40
2022-08-17T20:06:15.281Z,11.10
2022-08-17T20:08:55.707Z,11.10
2022-08-17T20:11:33.365Z,11.80
2022-08-17T20:14:10.950Z,12.40
2022-08-17T20:16:43.130Z,11.60
2022-08-17T20:19:24.385Z,11.00
2022-08-17T20:22:01.609Z,10.80
2022-08-17T20:24:45.022Z,11.50
2022-08-17T20:27:20.677Z,11.20
2022-08-17T20:30:10.847Z,11.30
2022-08-17T20:32:56.347Z,13.20
2022-08-17T20:35:30.983Z,12.70
2022-08-17T20:38:05.956Z,13.00
2022-08-17T20:41:02.669Z,12.90
2022-08-17T20:44:06.707Z,12.20
2022-08-17T20:47:06.897Z,11.50
2022-08-17T20:49:51.673Z,12.60
2022-08-17T20:52:46.639Z,12.40
2022-08-17T20:55:55.829Z,11.60
2022-08-17T20:58:49.652Z,12.00
2022-08-17T21:01:38.990Z,11.40
2022-08-17T21:04:47.428Z,12.40
2022-08-17T21:07:33.163Z,12.30
2022-08-17T21:10:18.137Z,12.40
2022-08-17T21:12:54.945Z,11.10
2022-08-17T21:15:37.468Z,12.00
2022-08-17T21:21:01.706Z,11.40
2022-08-17T21:23:47.984Z,12.10
2022-08-17T21:26:31.109Z,13.00
2022-08-17T21:29:32.465Z,13.20
2022-08-17T21:32:24.539Z,12.40
2022-08-17T21:35:24.617Z,12.90
2022-08-17T21:38:03.542Z,12.30
2022-08-17T21:40:36.482Z,13.30
2022-08-17T21:43:24.355Z,11.90
2022-08-17T21:46:03.497Z,12.90
2022-08-17T21:48:44.970Z,12.40
2022-08-17T21:51:23.834Z,12.10
2022-08-17T21:53:58.079Z,13.30
2022-08-17T21:56:34.009Z,12.70
2022-08-17T21:59:08.587Z,12.40
2022-08-17T22:01:42.961Z,13.50
2022-08-17T22:04:26.011Z,13.20
2022-08-17T22:06:59.844Z,13.00
2022-08-17T22:09:35.684Z,11.70
2022-08-17T22:12:11.842Z,12.80
2022-08-17T22:14:52.980Z,12.30
2022-08-17T22:17:28.284Z,13.10
2022-08-17T22:20:05.517Z,12.50
2022-08-17T22:23:09.379Z,12.50
2022-08-17T22:25:57.462Z,14.50
2022-08-17T22:28:41.933Z,13.50
2022-08-17T22:31:16.604Z,12.30
2022-08-17T22:33:51.432Z,12.80
2022-08-17T22:36:33.010Z,13.90
2022-08-17T22:39:43.095Z,12.90
2022-08-17T22:42:17.225Z,13.10
2022-08-17T22:44:51.416Z,12.40
2022-08-17T22:47:41.021Z,13.80
2022-08-17T22:50:23.836Z,13.90
2022-08-17T22:53:32.098Z,14.30
2022-08-17T22:56:22.119Z,14.20
2022-08-17T22:59:14.208Z,13.40
2022-08-17T23:02:06.953Z,13.70
2022-08-17T23:07:11.288Z,14.30
2022-08-17T23:09:43.690Z,13.40
2022-08-17T23:14:51.423Z,15.60
2022-08-17T23:17:23.110Z,14.50
2022-08-17T23:19:55.588Z,14.50
2022-08-17T23:24:59.788Z,14.10
2022-08-17T23:27:32.234Z,13.90
2022-08-17T23:32:36.705Z,15.00
2022-08-17T23:35:39.638Z,14.10
2022-08-17T23:38:13.853Z,14.80
2022-08-17T23:40:46.036Z,15.20
2022-08-17T23:43:24.021Z,15.00
2022-08-17T23:45:59.603Z,17.70
2022-08-17T23:48:36.671Z,15.30
2022-08-17T23:51:13.492Z,14.50
2022-08-17T23:53:47.612Z,16.10
2022-08-17T23:56:23.635Z,15.90
2022-08-17T23:58:56.471Z,16.50
